createdAt,value
2023-02-24T00:03:30.961Z,12.77
2023-02-24T00:08:32.336Z,11.88
2023-02-24T00:13:35.343Z,11.05
2023-02-24T00:18:36.702Z,11.82
2023-02-24T00:23:38.346Z,10.90
2023-02-24T00:28:40.487Z,10.98
2023-02-24T00:33:44.253Z,11.65
2023-02-24T00:38:47.115Z,9.40
2023-02-24T00:43:50.179Z,9.52
2023-02-24T00:48:56.459Z,10.25
2023-02-24T00:53:57.994Z,9.05
2023-02-24T00:59:00.474Z,10.02
2023-02-24T01:04:08.043Z,8.43
2023-02-24T01:14:19.357Z,7.72
2023-02-24T01:19:23.998Z,7.53
2023-02-24T01:24:25.968Z,8.43
2023-02-24T01:29:27.405Z,9.02
2023-02-24T01:34:28.733Z,9.00
2023-02-24T01:39:30.228Z,7.68
2023-02-24T01:44:32.738Z,7.70
2023-02-24T01:49:37.952Z,8.85
2023-02-24T01:54:46.045Z,8.07
2023-02-24T01:59:51.052Z,7.97
2023-02-24T02:05:01.809Z,8.10
2023-02-24T02:10:03.976Z,8.50
2023-02-24T02:15:07.582Z,7.43
2023-02-24T02:20:36.682Z,7.95
2023-02-24T02:26:02.795Z,7.50
2023-02-24T02:31:41.122Z,6.38
2023-02-24T02:42:07.019Z,6.80
2023-02-24T02:47:20.251Z,7.22
2023-02-24T02:52:31.794Z,7.10
2023-02-24T02:57:38.003Z,6.68
2023-02-24T03:02:45.351Z,7.70
2023-02-24T03:07:54.537Z,7.50
2023-02-24T03:12:59.546Z,6.82
2023-02-24T03:18:10.134Z,8.43
2023-02-24T03:23:16.707Z,7.55
2023-02-24T03:28:29.160Z,7.77
2023-02-24T03:33:49.293Z,7.38
2023-02-24T03:38:50.616Z,6.72
2023-02-24T03:43:52.106Z,8.40
2023-02-24T03:49:02.854Z,7.88
2023-02-24T03:54:42.782Z,6.70
2023-02-24T04:00:22.757Z,6.78
2023-02-24T04:05:27.483Z,7.60
2023-02-24T04:10:39.317Z,7.72
2023-02-24T04:15:48.467Z,8.40
2023-02-24T04:20:52.906Z,8.63
2023-02-24T04:25:57.868Z,8.32
2023-02-24T04:31:09.944Z,9.43
2023-02-24T04:36:12.791Z,10.77
2023-02-24T04:41:21.189Z,9.00
2023-02-24T04:46:23.278Z,9.63
2023-02-24T04:51:24.760Z,10.50
2023-02-24T04:56:26.073Z,9.82
2023-02-24T05:01:27.387Z,8.77
2023-02-24T05:06:28.788Z,8.68
2023-02-24T05:11:34.733Z,7.15
2023-02-24T05:16:37.629Z,8.48
2023-02-24T05:21:38.985Z,8.45
2023-02-24T05:26:43.378Z,8.60
2023-02-24T05:31:45.629Z,9.80
2023-02-24T05:36:49.045Z,9.15
2023-02-24T05:41:50.918Z,9.68
2023-02-24T05:47:00.767Z,8.63
2023-02-24T05:52:08.663Z,10.45
2023-02-24T05:57:16.939Z,10.07
2023-02-24T06:02:27.248Z,8.00
2023-02-24T06:07:34.389Z,11.77
2023-02-24T06:12:35.997Z,11.50
2023-02-24T06:17:37.626Z,13.23
2023-02-24T06:22:42.271Z,13.60
2023-02-24T06:27:43.746Z,13.70
2023-02-24T06:32:45.207Z,14.27
2023-02-24T06:37:47.214Z,13.45
2023-02-24T06:42:50.470Z,14.13
2023-02-24T06:47:52.208Z,14.90
2023-02-24T06:53:00.607Z,14.10
2023-02-24T06:58:04.795Z,14.25
2023-02-24T07:03:15.417Z,15.07
2023-02-24T07:08:19.036Z,14.43
2023-02-24T07:13:20.433Z,13.25
2023-02-24T07:18:22.875Z,13.98
2023-02-24T07:23:24.310Z,14.02
2023-02-24T07:28:25.646Z,13.32
2023-02-24T07:33:27.931Z,14.73
2023-02-24T07:38:29.350Z,13.75
2023-02-24T07:43:30.733Z,13.02
2023-02-24T07:48:32.031Z,13.32
2023-02-24T07:53:33.498Z,12.32
2023-02-24T07:58:34.821Z,14.98
2023-02-24T08:03:41.137Z,13.45
2023-02-24T08:08:58.145Z,12.25
2023-02-24T08:14:02.486Z,11.47
2023-02-24T08:19:03.911Z,11.52
2023-02-24T08:24:05.943Z,10.98
2023-02-24T08:29:07.356Z,10.00
2023-02-24T08:34:08.768Z,10.38
2023-02-24T08:39:10.149Z,8.65
2023-02-24T08:44:12.785Z,8.88
2023-02-24T08:49:16.949Z,9.88
2023-02-24T08:54:27.023Z,8.98
2023-02-24T08:59:37.758Z,7.80
2023-02-24T09:04:39.719Z,4.93
2023-02-24T09:09:42.450Z,6.43
2023-02-24T09:14:43.870Z,5.38
2023-02-24T09:19:47.980Z,7.60
2023-02-24T09:24:51.032Z,4.25
2023-02-24T09:29:52.471Z,6.15
2023-02-24T09:34:53.910Z,6.50
2023-02-24T09:39:57.873Z,4.90
2023-02-24T09:45:11.388Z,5.88
2023-02-24T09:50:48.276Z,4.70
2023-02-24T09:56:05.283Z,6.10
2023-02-24T10:01:45.592Z,6.05
2023-02-24T10:07:02.938Z,6.13
2023-02-24T10:12:23.970Z,5.95
2023-02-24T10:17:39.975Z,5.75
2023-02-24T10:22:54.056Z,6.45
2023-02-24T10:28:20.740Z,7.07
2023-02-24T10:33:30.209Z,6.95
2023-02-24T10:38:33.952Z,6.72
2023-02-24T10:43:45.332Z,6.60
2023-02-24T10:49:01.670Z,6.45
2023-02-24T10:54:31.302Z,6.88
2023-02-24T10:59:58.256Z,7.70
2023-02-24T11:05:38.681Z,6.38
2023-02-24T11:10:53.132Z,4.55
2023-02-24T11:16:14.586Z,6.40
2023-02-24T11:21:16.308Z,6.60
2023-02-24T11:26:23.472Z,5.13
2023-02-24T11:31:42.695Z,6.35
2023-02-24T11:37:16.901Z,5.90
2023-02-24T11:42:31.399Z,4.30
2023-02-24T11:47:47.796Z,5.30
2023-02-24T11:52:51.845Z,7.78
2023-02-24T11:57:59.179Z,6.03
2023-02-24T12:03:18.182Z,4.82
2023-02-24T12:08:31.883Z,5.75
2023-02-24T12:13:39.742Z,5.40
2023-02-24T12:18:47.919Z,6.63
2023-02-24T12:23:53.557Z,6.00
2023-02-24T12:29:48.491Z,4.73
2023-02-24T12:35:06.772Z,5.30
2023-02-24T12:40:27.348Z,4.32
2023-02-24T12:45:48.091Z,3.22
2023-02-24T12:51:09.733Z,3.08
2023-02-24T12:56:19.945Z,4.88
2023-02-24T13:01:56.775Z,4.20
2023-02-24T13:07:36.949Z,4.82
2023-02-24T13:12:47.330Z,5.65
2023-02-24T13:17:53.504Z,5.43
2023-02-24T13:22:55.807Z,4.85
2023-02-24T13:28:01.195Z,5.03
2023-02-24T13:33:21.693Z,5.05
2023-02-24T13:38:35.346Z,5.47
2023-02-24T13:43:36.800Z,4.68
2023-02-24T13:49:07.506Z,4.20
2023-02-24T13:54:39.835Z,5.57
2023-02-24T13:59:53.048Z,4.40
2023-02-24T14:04:57.680Z,4.82
2023-02-24T14:10:05.396Z,3.95
2023-02-24T14:20:18.908Z,3.40
2023-02-24T14:25:24.712Z,4.18
2023-02-24T14:30:31.698Z,3.20
2023-02-24T14:35:34.789Z,2.70
2023-02-24T14:40:36.149Z,2.50
2023-02-24T14:45:49.009Z,2.33
2023-02-24T14:50:50.710Z,1.77
2023-02-24T14:55:56.425Z,3.42
2023-02-24T15:01:05.737Z,2.80
2023-02-24T15:06:15.436Z,2.20
2023-02-24T15:11:16.705Z,1.63
2023-02-24T15:16:25.569Z,2.22
2023-02-24T15:21:54.026Z,3.22
2023-02-24T15:27:00.967Z,3.65
2023-02-24T15:32:06.798Z,2.45
2023-02-24T15:37:26.331Z,1.98
2023-02-24T15:42:34.484Z,2.35
2023-02-24T15:47:46.054Z,2.40
2023-02-24T15:52:47.889Z,2.83
2023-02-24T15:57:58.371Z,1.70
2023-02-24T17:01:25.303Z,0.77
2023-02-24T17:06:27.552Z,1.25
2023-02-24T17:11:29.187Z,1.40
2023-02-24T17:16:30.608Z,0.82
2023-02-24T17:21:31.933Z,1.30
2023-02-24T17:26:33.274Z,0.68
2023-02-24T17:31:34.828Z,0.30
2023-02-24T17:36:36.248Z,0.90
2023-02-24T17:41:37.605Z,0.60
2023-02-24T17:46:39.098Z,0.80
2023-02-24T17:51:40.534Z,1.17
2023-02-24T17:56:41.933Z,0.90
2023-02-24T18:01:43.270Z,0.85
2023-02-24T18:06:44.970Z,1.17
2023-02-24T18:11:47.673Z,1.50
2023-02-24T18:16:49.065Z,0.77
2023-02-24T18:21:50.410Z,1.13
2023-02-24T18:26:51.749Z,1.35
2023-02-24T18:31:53.268Z,0.93
2023-02-24T18:36:54.896Z,1.63
2023-02-24T18:41:58.275Z,1.45
2023-02-24T18:47:00.921Z,0.85
2023-02-24T18:52:02.455Z,1.27
2023-02-24T18:57:03.943Z,1.10
2023-02-24T19:02:05.344Z,1.70
2023-02-24T19:07:07.565Z,2.63
2023-02-24T19:12:09.045Z,3.05
2023-02-24T19:17:10.427Z,3.20
2023-02-24T19:22:11.938Z,3.70
2023-02-24T19:27:13.952Z,3.63
2023-02-24T19:32:15.447Z,3.58
2023-02-24T19:37:16.867Z,3.35
2023-02-24T19:42:18.244Z,3.30
2023-02-24T19:47:19.690Z,3.35
2023-02-24T19:52:21.086Z,3.70
2023-02-24T19:57:22.478Z,3.13
2023-02-24T20:02:24.282Z,3.17
2023-02-24T20:07:25.697Z,3.33
2023-02-24T20:12:27.506Z,2.40
2023-02-24T20:17:28.946Z,2.33
2023-02-24T20:22:30.449Z,2.45
2023-02-24T20:27:32.558Z,3.13
2023-02-24T20:32:34.086Z,3.20
2023-02-24T20:37:36.080Z,2.95
2023-02-24T20:42:37.424Z,3.70
2023-02-24T20:47:38.873Z,3.92
2023-02-24T20:52:40.279Z,2.70
2023-02-24T20:57:41.648Z,3.63
2023-02-24T21:02:43.586Z,1.95
2023-02-24T21:07:45.313Z,3.22
2023-02-24T21:12:47.250Z,3.75
2023-02-24T21:17:48.615Z,3.40
2023-02-24T21:22:49.964Z,4.32
2023-02-24T21:27:51.338Z,3.97
2023-02-24T21:32:52.705Z,3.72
2023-02-24T21:37:54.052Z,2.85
2023-02-24T21:42:55.401Z,3.42
2023-02-24T21:47:56.797Z,2.08
2023-02-24T21:52:58.120Z,1.48
2023-02-24T21:57:59.523Z,1.58
2023-02-24T22:03:00.934Z,1.73
2023-02-24T22:08:02.447Z,1.55
2023-02-24T22:13:03.805Z,1.10
2023-02-24T22:18:05.228Z,0.90
2023-02-24T22:23:06.537Z,1.00
2023-02-24T22:28:07.950Z,0.80
2023-02-24T22:33:09.441Z,1.23
2023-02-24T22:38:10.864Z,0.80
2023-02-24T22:43:12.234Z,1.00
2023-02-24T22:48:14.325Z,0.57
2023-02-24T22:53:16.367Z,0.75
2023-02-24T22:58:19.721Z,1.00
2023-02-24T23:03:24.600Z,0.65
2023-02-24T23:08:31.009Z,1.08
2023-02-24T23:13:35.319Z,0.75
2023-02-24T23:18:37.724Z,0.77
2023-02-24T23:23:39.065Z,0.68
2023-02-24T23:28:40.816Z,0.20
2023-02-24T23:33:42.159Z,1.40
2023-02-24T23:38:44.796Z,0.63
2023-02-24T23:43:46.216Z,0.65
2023-02-24T23:48:52.387Z,1.50
2023-02-24T23:53:53.723Z,0.85
2023-02-24T23:58:58.652Z,0.70
